createdAt,value
2023-05-17T00:01:47.493Z,8.76
2023-05-17T00:04:13.990Z,8.75
2023-05-17T00:06:41.107Z,8.74
2023-05-17T00:09:07.728Z,8.71
2023-05-17T00:11:34.432Z,8.71
2023-05-17T00:14:01.165Z,8.66
2023-05-17T00:16:28.089Z,8.70
2023-05-17T00:18:54.722Z,8.70
2023-05-17T00:21:21.441Z,8.73
2023-05-17T00:23:47.914Z,8.74
2023-05-17T00:26:14.405Z,8.71
2023-05-17T00:28:41.794Z,8.70
2023-05-17T00:31:08.332Z,8.51
2023-05-17T00:33:34.873Z,8.73
2023-05-17T00:36:01.410Z,8.74
2023-05-17T00:38:27.989Z,8.73
2023-05-17T00:40:54.644Z,8.72
2023-05-17T00:43:21.165Z,8.72
2023-05-17T00:45:49.335Z,8.71
2023-05-17T00:48:16.261Z,8.69
2023-05-17T00:50:43.176Z,8.66
2023-05-17T00:53:11.317Z,8.65
2023-05-17T00:55:37.994Z,8.59
2023-05-17T00:58:04.547Z,8.59
2023-05-17T01:00:31.167Z,8.61
2023-05-17T01:02:57.872Z,8.62
2023-05-17T01:05:24.498Z,8.60
2023-05-17T01:07:51.241Z,8.60
2023-05-17T01:10:17.783Z,8.61
2023-05-17T01:13:02.471Z,8.58
2023-05-17T01:15:33.468Z,8.59
2023-05-17T01:18:28.144Z,8.57
2023-05-17T01:20:58.504Z,8.58
2023-05-17T01:23:41.308Z,8.56
2023-05-17T01:26:13.961Z,8.59
2023-05-17T01:28:43.735Z,8.56
2023-05-17T01:31:11.247Z,8.56
2023-05-17T01:33:38.468Z,8.59
2023-05-17T01:36:05.668Z,8.59
2023-05-17T01:38:32.137Z,8.52
2023-05-17T01:41:08.227Z,8.50
2023-05-17T01:43:48.109Z,8.47
2023-05-17T01:46:38.946Z,8.45
2023-05-17T01:49:08.959Z,8.45
2023-05-17T01:51:45.272Z,8.44
2023-05-17T01:54:13.991Z,8.43
2023-05-17T01:56:47.936Z,8.42
2023-05-17T01:59:21.656Z,8.43
2023-05-17T02:01:49.305Z,8.37
2023-05-17T02:04:15.864Z,8.39
2023-05-17T02:06:42.627Z,8.39
2023-05-17T02:09:09.099Z,8.40
2023-05-17T02:11:36.288Z,8.40
2023-05-17T02:14:02.760Z,8.40
2023-05-17T02:16:29.298Z,8.41
2023-05-17T02:18:56.020Z,8.43
2023-05-17T02:21:22.603Z,8.44
2023-05-17T02:23:49.109Z,8.41
2023-05-17T02:26:18.785Z,8.31
2023-05-17T02:28:45.369Z,8.21
2023-05-17T02:31:11.851Z,8.18
2023-05-17T02:33:38.605Z,8.14
2023-05-17T02:36:05.402Z,8.14
2023-05-17T02:38:32.002Z,8.10
2023-05-17T02:40:58.472Z,8.07
2023-05-17T02:43:25.216Z,8.06
2023-05-17T02:45:51.785Z,8.05
2023-05-17T02:48:18.598Z,8.00
2023-05-17T02:50:45.398Z,7.97
2023-05-17T02:53:12.024Z,7.88
2023-05-17T02:55:38.951Z,7.88
2023-05-17T02:58:05.633Z,7.82
2023-05-17T03:00:33.019Z,7.81
2023-05-17T03:02:59.718Z,7.73
2023-05-17T03:05:26.481Z,7.71
2023-05-17T03:07:53.622Z,7.68
2023-05-17T03:10:20.571Z,7.66
2023-05-17T03:12:47.822Z,7.63
2023-05-17T03:15:18.203Z,7.60
2023-05-17T03:17:45.665Z,7.60
2023-05-17T03:20:13.097Z,7.55
2023-05-17T03:22:39.607Z,7.53
2023-05-17T03:25:06.797Z,7.52
2023-05-17T03:27:33.709Z,7.58
2023-05-17T03:30:00.658Z,7.57
2023-05-17T03:32:28.718Z,7.54
2023-05-17T03:34:55.379Z,7.52
2023-05-17T03:37:22.400Z,7.50
2023-05-17T03:39:48.874Z,7.47
2023-05-17T03:42:15.524Z,7.36
2023-05-17T03:44:42.232Z,7.38
2023-05-17T03:47:08.917Z,7.35
2023-05-17T03:49:35.376Z,7.34
2023-05-17T03:52:03.559Z,7.37
2023-05-17T03:54:30.104Z,7.39
2023-05-17T03:56:56.620Z,7.37
2023-05-17T03:59:23.771Z,7.35
2023-05-17T04:01:50.551Z,7.32
2023-05-17T04:04:17.105Z,7.30
2023-05-17T04:06:43.704Z,7.31
2023-05-17T04:09:11.046Z,7.31
2023-05-17T04:11:40.455Z,7.30
2023-05-17T04:14:07.062Z,7.31
2023-05-17T04:16:33.826Z,7.34
2023-05-17T04:19:01.090Z,7.33
2023-05-17T04:21:28.977Z,7.28
2023-05-17T04:23:56.105Z,7.25
2023-05-17T04:26:22.783Z,7.22
2023-05-17T04:28:49.545Z,7.17
2023-05-17T04:31:17.856Z,7.13
2023-05-17T04:33:45.142Z,7.13
2023-05-17T04:36:11.992Z,7.17
2023-05-17T04:38:39.984Z,7.17
2023-05-17T04:41:09.457Z,7.24
2023-05-17T04:43:38.250Z,7.28
2023-05-17T04:46:08.935Z,7.29
2023-05-17T04:48:36.000Z,7.26
2023-05-17T04:51:04.480Z,7.33
2023-05-17T04:53:31.853Z,7.42
2023-05-17T04:56:00.674Z,7.47
2023-05-17T04:58:27.456Z,7.50
2023-05-17T05:00:57.790Z,7.55
2023-05-17T05:03:24.412Z,7.56
2023-05-17T05:05:51.452Z,7.57
2023-05-17T05:08:18.138Z,7.61
2023-05-17T05:10:46.341Z,7.68
2023-05-17T05:13:15.423Z,7.72
2023-05-17T05:15:42.160Z,7.76
2023-05-17T05:18:08.935Z,7.82
2023-05-17T05:20:35.551Z,7.88
2023-05-17T05:23:05.912Z,7.93
2023-05-17T05:25:34.657Z,7.97
2023-05-17T05:28:01.770Z,8.04
2023-05-17T05:30:29.569Z,8.11
2023-05-17T05:32:56.715Z,8.14
2023-05-17T05:35:29.408Z,8.21
2023-05-17T05:37:57.993Z,8.13
2023-05-17T05:40:24.871Z,8.17
2023-05-17T05:42:52.347Z,8.17
2023-05-17T05:45:21.617Z,8.14
2023-05-17T05:47:49.648Z,8.19
2023-05-17T05:50:16.387Z,8.24
2023-05-17T05:52:44.633Z,8.24
2023-05-17T05:55:11.305Z,8.24
2023-05-17T05:57:37.821Z,8.31
2023-05-17T06:00:05.857Z,8.35
2023-05-17T06:02:39.365Z,8.35
2023-05-17T06:05:06.146Z,8.39
2023-05-17T06:07:35.564Z,8.48
2023-05-17T06:10:02.086Z,8.48
2023-05-17T06:12:28.575Z,8.48
2023-05-17T06:14:55.110Z,8.59
2023-05-17T06:17:21.627Z,8.73
2023-05-17T06:19:49.311Z,8.90
2023-05-17T06:22:16.200Z,8.94
2023-05-17T06:24:42.737Z,9.03
2023-05-17T06:27:09.318Z,9.14
2023-05-17T06:29:36.281Z,9.20
2023-05-17T06:32:02.837Z,9.23
2023-05-17T06:34:29.320Z,9.25
2023-05-17T06:36:55.928Z,9.41
2023-05-17T06:39:22.461Z,9.54
2023-05-17T06:41:48.947Z,9.68
2023-05-17T06:44:17.463Z,9.82
2023-05-17T06:46:43.905Z,9.85
2023-05-17T06:49:10.426Z,9.88
2023-05-17T06:51:36.892Z,10.02
2023-05-17T06:54:03.456Z,10.07
2023-05-17T06:56:30.109Z,10.21
2023-05-17T06:58:56.690Z,10.25
2023-05-17T07:01:23.128Z,10.31
2023-05-17T07:03:49.874Z,10.33
2023-05-17T07:06:16.381Z,10.32
2023-05-17T07:08:42.889Z,10.39
2023-05-17T07:11:09.338Z,10.60
2023-05-17T07:13:36.056Z,10.80
2023-05-17T07:16:02.577Z,10.94
2023-05-17T07:18:29.137Z,10.85
2023-05-17T07:20:55.815Z,10.74
2023-05-17T07:23:22.268Z,10.66
2023-05-17T07:25:48.737Z,10.73
2023-05-17T07:28:15.234Z,10.90
2023-05-17T07:30:41.696Z,11.04
2023-05-17T07:33:08.211Z,11.12
2023-05-17T07:35:34.717Z,11.25
2023-05-17T07:38:01.189Z,11.42
2023-05-17T07:40:27.743Z,11.41
2023-05-17T07:42:54.191Z,11.40
2023-05-17T07:45:20.858Z,11.27
2023-05-17T07:47:47.358Z,11.25
2023-05-17T07:50:13.967Z,11.41
2023-05-17T07:52:40.450Z,11.43
2023-05-17T07:55:07.837Z,11.46
2023-05-17T07:57:36.853Z,11.57
2023-05-17T08:00:04.358Z,11.67
2023-05-17T08:02:38.618Z,11.59
2023-05-17T08:05:05.443Z,11.62
2023-05-17T08:07:31.908Z,11.83
2023-05-17T08:09:58.367Z,11.87
2023-05-17T08:12:25.399Z,11.80
2023-05-17T08:14:51.884Z,11.96
2023-05-17T08:17:18.354Z,12.05
2023-05-17T08:19:44.900Z,12.18
2023-05-17T08:22:11.498Z,12.37
2023-05-17T08:24:37.960Z,12.58
2023-05-17T08:27:05.971Z,12.67
2023-05-17T08:29:32.416Z,12.72
2023-05-17T08:31:58.938Z,12.60
2023-05-17T08:34:25.673Z,12.52
2023-05-17T08:36:53.539Z,12.67
2023-05-17T08:39:21.118Z,12.56
2023-05-17T08:41:48.422Z,12.46
2023-05-17T08:44:16.921Z,12.56
2023-05-17T08:46:44.378Z,12.69
2023-05-17T08:49:15.825Z,12.69
2023-05-17T08:51:43.687Z,12.63
2023-05-17T08:54:10.247Z,12.75
2023-05-17T08:56:39.369Z,12.88
2023-05-17T08:59:08.447Z,12.91
2023-05-17T09:01:35.088Z,13.10
2023-05-17T09:04:01.665Z,13.34
2023-05-17T09:06:30.052Z,13.57
2023-05-17T09:08:58.484Z,13.65
2023-05-17T09:11:27.837Z,13.73
2023-05-17T09:13:58.769Z,13.85
2023-05-17T09:16:28.357Z,13.99
2023-05-17T09:18:56.239Z,14.17
2023-05-17T09:21:23.951Z,14.31
2023-05-17T09:24:05.626Z,14.27
2023-05-17T09:26:45.691Z,14.30
2023-05-17T09:29:14.081Z,14.13
2023-05-17T09:31:41.373Z,13.82
2023-05-17T09:34:08.146Z,13.56
2023-05-17T09:36:39.140Z,13.67
2023-05-17T09:39:10.665Z,13.69
2023-05-17T09:41:46.677Z,13.73
2023-05-17T09:44:14.564Z,13.78
2023-05-17T09:46:48.770Z,14.18
2023-05-17T09:49:16.733Z,14.63
2023-05-17T09:51:45.395Z,14.99
2023-05-17T09:54:11.967Z,15.01
2023-05-17T09:56:39.095Z,14.82
2023-05-17T09:59:12.375Z,14.66
2023-05-17T10:01:41.223Z,14.55
2023-05-17T10:04:12.207Z,14.48
2023-05-17T10:06:49.735Z,14.46
2023-05-17T10:09:21.640Z,14.28
2023-05-17T10:11:48.478Z,14.21
2023-05-17T10:14:23.556Z,14.46
2023-05-17T10:16:51.689Z,14.93
2023-05-17T10:19:20.284Z,15.38
2023-05-17T10:21:51.810Z,15.45
2023-05-17T10:24:20.610Z,15.48
2023-05-17T10:26:50.009Z,15.31
2023-05-17T10:29:16.886Z,15.09
2023-05-17T10:31:43.713Z,14.89
2023-05-17T10:34:11.976Z,15.10
2023-05-17T10:36:39.271Z,15.09
2023-05-17T10:39:08.011Z,15.07
2023-05-17T10:41:36.151Z,15.11
2023-05-17T10:44:05.354Z,15.01
2023-05-17T10:46:32.303Z,14.71
2023-05-17T10:49:00.549Z,14.54
2023-05-17T10:51:34.058Z,14.41
2023-05-17T10:54:05.002Z,14.38
2023-05-17T10:56:32.179Z,14.36
2023-05-17T10:59:19.908Z,14.29
2023-05-17T11:02:03.388Z,14.44
2023-05-17T11:04:38.391Z,14.51
2023-05-17T11:07:17.361Z,14.83
2023-05-17T11:09:45.069Z,15.08
2023-05-17T11:12:13.874Z,15.30
2023-05-17T11:14:46.140Z,15.52
2023-05-17T11:17:17.966Z,15.48
2023-05-17T11:20:13.205Z,15.48
2023-05-17T11:22:55.490Z,15.33
2023-05-17T11:25:22.165Z,15.27
2023-05-17T11:27:51.562Z,15.06
2023-05-17T11:30:22.038Z,15.02
2023-05-17T11:32:54.125Z,15.15
2023-05-17T11:35:24.737Z,15.59
2023-05-17T11:38:11.733Z,16.12
2023-05-17T11:40:38.787Z,16.50
2023-05-17T11:43:19.434Z,16.38
2023-05-17T11:45:53.089Z,16.11
2023-05-17T11:48:22.268Z,15.92
2023-05-17T11:50:51.122Z,16.08
2023-05-17T11:53:18.086Z,16.13
2023-05-17T11:55:50.281Z,15.93
2023-05-17T11:58:19.012Z,15.82
2023-05-17T12:00:45.862Z,16.26
2023-05-17T12:03:22.578Z,16.86
2023-05-17T12:05:52.097Z,16.89
2023-05-17T12:08:20.367Z,16.52
2023-05-17T12:10:52.460Z,16.13
2023-05-17T12:13:20.901Z,15.96
2023-05-17T12:16:02.597Z,15.91
2023-05-17T12:18:40.467Z,15.92
2023-05-17T12:21:09.255Z,16.01
2023-05-17T12:23:38.194Z,15.92
2023-05-17T12:26:16.130Z,15.74
2023-05-17T12:28:52.732Z,15.56
2023-05-17T12:31:24.846Z,15.40
2023-05-17T12:33:51.608Z,15.43
2023-05-17T12:36:18.928Z,15.75
2023-05-17T12:38:47.138Z,15.99
2023-05-17T12:41:15.703Z,15.87
2023-05-17T12:43:44.642Z,15.97
2023-05-17T12:46:19.295Z,16.29
2023-05-17T12:48:46.990Z,16.51
2023-05-17T12:51:15.509Z,16.36
2023-05-17T12:53:44.240Z,16.28
2023-05-17T12:56:23.149Z,16.13
2023-05-17T12:59:14.226Z,15.88
2023-05-17T13:01:51.752Z,15.71
2023-05-17T13:04:19.683Z,15.66
2023-05-17T13:06:54.894Z,15.52
2023-05-17T13:09:23.940Z,15.38
2023-05-17T13:11:55.329Z,15.24
2023-05-17T13:14:41.217Z,15.34
2023-05-17T13:17:12.002Z,15.61
2023-05-17T13:19:39.631Z,15.57
2023-05-17T13:22:06.662Z,15.41
2023-05-17T13:24:38.095Z,15.26
2023-05-17T13:27:06.020Z,14.99
2023-05-17T13:29:39.342Z,14.88
2023-05-17T13:32:07.959Z,14.69
2023-05-17T13:34:34.643Z,14.58
2023-05-17T13:37:01.757Z,14.53
2023-05-17T13:39:28.243Z,14.50
2023-05-17T13:41:54.721Z,14.50
2023-05-17T13:44:21.348Z,14.45
2023-05-17T13:46:47.878Z,14.38
2023-05-17T13:49:14.698Z,14.41
2023-05-17T13:51:41.628Z,14.47
2023-05-17T13:54:08.140Z,14.48
2023-05-17T13:56:34.853Z,14.58
2023-05-17T13:59:01.571Z,14.89
2023-05-17T14:01:28.032Z,15.17
2023-05-17T14:03:55.332Z,15.14
2023-05-17T14:06:22.083Z,15.62
2023-05-17T14:08:49.556Z,16.17
2023-05-17T14:11:16.101Z,16.57
2023-05-17T14:13:42.941Z,16.51
2023-05-17T14:16:09.455Z,16.72
2023-05-17T14:18:36.191Z,17.16
2023-05-17T14:21:03.518Z,17.14
2023-05-17T14:23:30.137Z,16.69
2023-05-17T14:25:57.711Z,16.35
2023-05-17T14:28:24.474Z,15.98
2023-05-17T14:30:51.829Z,15.63
2023-05-17T14:33:18.621Z,15.32
2023-05-17T14:35:45.239Z,15.15
2023-05-17T14:38:11.797Z,15.08
2023-05-17T14:40:38.319Z,14.94
2023-05-17T14:43:05.050Z,14.85
2023-05-17T14:45:31.833Z,14.82
2023-05-17T14:47:58.455Z,14.72
2023-05-17T14:50:25.025Z,14.48
2023-05-17T14:52:51.527Z,14.29
2023-05-17T14:55:18.712Z,14.16
2023-05-17T14:57:45.856Z,14.28
2023-05-17T15:00:13.673Z,14.50
2023-05-17T15:02:40.284Z,14.77
2023-05-17T15:05:07.303Z,14.96
2023-05-17T15:07:34.332Z,15.15
2023-05-17T15:10:01.391Z,15.26
2023-05-17T15:12:28.305Z,15.48
2023-05-17T15:14:54.781Z,15.38
2023-05-17T15:17:22.052Z,15.38
2023-05-17T15:19:48.916Z,15.29
2023-05-17T15:22:15.884Z,15.68
2023-05-17T15:24:42.459Z,15.85
2023-05-17T15:27:12.544Z,15.95
2023-05-17T15:29:40.839Z,16.00
2023-05-17T15:32:07.511Z,16.06
2023-05-17T15:34:34.154Z,16.15
2023-05-17T15:37:01.101Z,16.23
2023-05-17T15:39:28.070Z,16.40
2023-05-17T15:41:54.526Z,16.33
2023-05-17T15:44:23.748Z,16.29
2023-05-17T15:46:50.833Z,16.25
2023-05-17T15:49:17.376Z,16.13
2023-05-17T15:51:43.896Z,16.18
2023-05-17T15:54:10.382Z,16.13
2023-05-17T15:56:38.311Z,15.96
2023-05-17T15:59:05.641Z,15.75
2023-05-17T16:01:32.148Z,15.61
2023-05-17T16:03:58.645Z,15.51
2023-05-17T16:06:25.287Z,15.62
2023-05-17T16:08:51.843Z,15.65
2023-05-17T16:11:18.362Z,15.83
2023-05-17T16:13:44.847Z,15.98
2023-05-17T16:16:13.352Z,16.04
2023-05-17T16:18:40.005Z,16.25
2023-05-17T16:21:06.708Z,16.46
2023-05-17T16:23:33.358Z,16.47
2023-05-17T16:26:00.001Z,16.36
2023-05-17T16:28:26.526Z,16.56
2023-05-17T16:30:53.145Z,16.52
2023-05-17T16:33:20.607Z,16.34
2023-05-17T16:35:48.846Z,16.10
2023-05-17T16:38:16.582Z,15.69
2023-05-17T16:40:43.149Z,15.57
2023-05-17T16:43:09.975Z,15.32
2023-05-17T16:45:36.553Z,15.18
2023-05-17T16:48:03.218Z,15.19
2023-05-17T16:50:30.009Z,15.34
2023-05-17T16:52:56.801Z,15.40
2023-05-17T16:55:23.369Z,15.18
2023-05-17T16:57:49.909Z,14.95
2023-05-17T17:00:16.844Z,14.90
2023-05-17T17:02:43.361Z,14.92
2023-05-17T17:05:10.352Z,14.97
2023-05-17T17:07:36.811Z,15.10
2023-05-17T17:10:03.414Z,15.09
2023-05-17T17:12:30.077Z,14.89
2023-05-17T17:14:56.557Z,14.74
2023-05-17T17:17:22.983Z,14.41
2023-05-17T17:19:49.473Z,14.09
2023-05-17T17:22:16.646Z,13.83
2023-05-17T17:24:44.400Z,13.86
2023-05-17T17:27:10.935Z,13.88
2023-05-17T17:29:37.452Z,13.87
2023-05-17T17:32:05.041Z,13.93
2023-05-17T17:34:31.660Z,13.90
2023-05-17T17:36:58.140Z,13.82
2023-05-17T17:39:25.869Z,13.95
2023-05-17T17:41:52.330Z,14.29
2023-05-17T17:44:19.556Z,15.53
2023-05-17T17:46:46.110Z,16.77
2023-05-17T17:49:12.635Z,17.74
2023-05-17T17:51:39.098Z,18.05
2023-05-17T17:54:07.262Z,17.65
2023-05-17T17:56:33.910Z,16.85
2023-05-17T17:59:00.340Z,15.76
2023-05-17T18:01:27.464Z,14.85
2023-05-17T18:03:54.096Z,14.25
2023-05-17T18:06:21.169Z,13.81
2023-05-17T18:08:47.643Z,13.46
2023-05-17T18:11:14.218Z,13.21
2023-05-17T18:13:40.771Z,12.99
2023-05-17T18:16:07.346Z,12.83
2023-05-17T18:18:34.060Z,12.60
2023-05-17T18:21:00.631Z,12.58
2023-05-17T18:23:27.163Z,12.42
2023-05-17T18:25:53.603Z,12.29
2023-05-17T18:28:29.989Z,12.14
2023-05-17T18:31:06.742Z,12.08
2023-05-17T18:33:34.196Z,11.95
2023-05-17T18:36:00.867Z,11.83
2023-05-17T18:38:27.371Z,11.71
2023-05-17T18:40:53.779Z,11.57
2023-05-17T18:43:20.472Z,11.58
2023-05-17T18:45:46.946Z,11.49
2023-05-17T18:48:13.411Z,11.45
2023-05-17T18:50:39.939Z,11.35
2023-05-17T18:53:06.618Z,11.31
2023-05-17T18:55:33.157Z,11.19
2023-05-17T18:57:59.723Z,11.19
2023-05-17T19:00:26.348Z,11.13
2023-05-17T19:02:53.207Z,11.08
2023-05-17T19:05:19.739Z,11.01
2023-05-17T19:07:46.187Z,10.97
2023-05-17T19:10:12.637Z,10.91
2023-05-17T19:12:39.244Z,10.84
2023-05-17T19:15:06.166Z,10.78
2023-05-17T19:17:32.735Z,10.71
2023-05-17T19:19:59.275Z,10.61
2023-05-17T19:22:25.935Z,10.55
2023-05-17T19:24:52.497Z,10.50
2023-05-17T19:27:19.699Z,10.45
2023-05-17T19:29:47.086Z,10.36
2023-05-17T19:32:13.692Z,10.32
2023-05-17T19:34:40.416Z,10.29
2023-05-17T19:37:07.198Z,10.21
2023-05-17T19:39:33.690Z,10.17
2023-05-17T19:42:00.172Z,10.15
2023-05-17T19:44:26.756Z,10.05
2023-05-17T19:46:53.540Z,10.05
2023-05-17T19:49:20.190Z,9.98
2023-05-17T19:51:48.124Z,10.00
2023-05-17T19:54:14.699Z,9.96
2023-05-17T19:56:41.444Z,9.93
2023-05-17T19:59:08.022Z,9.91
2023-05-17T20:01:34.685Z,9.91
2023-05-17T20:04:01.395Z,9.88
2023-05-17T20:06:27.955Z,9.84
2023-05-17T20:08:54.410Z,9.82
2023-05-17T20:11:21.603Z,9.78
2023-05-17T20:13:48.076Z,9.75
2023-05-17T20:16:14.800Z,9.70
2023-05-17T20:18:45.124Z,9.67
2023-05-17T20:21:15.081Z,9.65
2023-05-17T20:23:41.716Z,9.63
2023-05-17T20:26:08.211Z,9.62
2023-05-17T20:28:34.683Z,9.59
2023-05-17T20:31:01.230Z,9.58
2023-05-17T20:33:27.828Z,9.59
2023-05-17T20:35:54.378Z,9.56
2023-05-17T20:38:21.734Z,9.56
2023-05-17T20:40:48.498Z,9.55
2023-05-17T20:43:16.750Z,9.54
2023-05-17T20:45:43.626Z,9.52
2023-05-17T20:48:10.276Z,9.50
2023-05-17T20:50:37.109Z,9.48
2023-05-17T20:53:03.692Z,9.46
2023-05-17T20:55:30.486Z,9.41
2023-05-17T20:57:57.052Z,9.35
2023-05-17T21:00:24.721Z,9.31
2023-05-17T21:02:51.394Z,9.28
2023-05-17T21:05:18.116Z,9.26
2023-05-17T21:07:47.741Z,9.25
2023-05-17T21:10:14.239Z,9.20
2023-05-17T21:12:40.736Z,9.14
2023-05-17T21:15:15.989Z,9.11
2023-05-17T21:17:43.487Z,9.07
2023-05-17T21:20:10.755Z,9.04
2023-05-17T21:22:37.630Z,9.03
2023-05-17T21:25:04.731Z,9.00
2023-05-17T21:27:31.383Z,8.96
2023-05-17T21:29:57.901Z,8.94
2023-05-17T21:32:24.383Z,8.90
2023-05-17T21:34:53.719Z,8.88
2023-05-17T21:37:21.175Z,8.87
2023-05-17T21:39:47.664Z,8.87
2023-05-17T21:42:14.247Z,8.85
2023-05-17T21:44:40.843Z,8.83
2023-05-17T21:47:07.469Z,8.81
2023-05-17T21:49:34.168Z,8.76
2023-05-17T21:52:00.785Z,8.75
2023-05-17T21:54:27.357Z,8.72
2023-05-17T21:56:54.016Z,8.69
2023-05-17T21:59:20.565Z,8.65
2023-05-17T22:01:47.290Z,8.63
2023-05-17T22:04:13.834Z,8.61
2023-05-17T22:06:40.345Z,8.58
2023-05-17T22:09:07.069Z,8.56
2023-05-17T22:11:38.166Z,8.52
2023-05-17T22:14:08.285Z,8.50
2023-05-17T22:16:36.068Z,8.46
2023-05-17T22:19:03.889Z,8.45
2023-05-17T22:21:31.889Z,8.41
2023-05-17T22:23:59.056Z,8.37
2023-05-17T22:26:25.721Z,8.35
2023-05-17T22:28:52.399Z,8.29
2023-05-17T22:31:19.723Z,8.21
2023-05-17T22:33:46.719Z,8.17
2023-05-17T22:36:14.089Z,8.10
2023-05-17T22:38:42.650Z,7.97
2023-05-17T22:41:10.589Z,7.92
2023-05-17T22:43:37.570Z,7.87
2023-05-17T22:46:04.369Z,7.82
2023-05-17T22:48:32.011Z,7.78
2023-05-17T22:51:00.875Z,7.73
2023-05-17T22:53:31.082Z,7.67
2023-05-17T22:55:57.563Z,7.64
2023-05-17T22:58:24.062Z,7.62
2023-05-17T23:00:51.290Z,7.60
2023-05-17T23:03:19.157Z,7.57
2023-05-17T23:05:45.921Z,7.55
2023-05-17T23:08:15.274Z,7.48
2023-05-17T23:10:45.423Z,7.47
2023-05-17T23:13:12.710Z,7.43
2023-05-17T23:15:40.858Z,7.36
2023-05-17T23:18:07.608Z,7.30
2023-05-17T23:20:34.966Z,7.29
2023-05-17T23:23:01.728Z,7.29
2023-05-17T23:25:29.014Z,7.32
2023-05-17T23:27:58.126Z,7.30
2023-05-17T23:30:26.123Z,7.33
2023-05-17T23:32:55.707Z,7.33
2023-05-17T23:35:25.117Z,7.31
2023-05-17T23:37:51.760Z,7.25
2023-05-17T23:40:18.284Z,7.24
2023-05-17T23:42:44.852Z,7.20
2023-05-17T23:45:11.404Z,7.11
2023-05-17T23:47:40.698Z,7.04
2023-05-17T23:50:11.849Z,6.98
2023-05-17T23:52:39.152Z,6.92
2023-05-17T23:55:08.922Z,6.89
2023-05-17T23:57:35.558Z,6.86
